Mayo, Canada
Current Conditions -  °F | °C
As of 11:00 PM on Saturday 25 Oct 2014 (Local Time) from CYMA Reporting Station
Light Snow Light Snow  
Wind Chill: 20°   Ceiling: 8000
Heat Index: 27°   Visibility: 10mi
Dew Point: 23°   Wind: 6mph
Humidity: 86%   Direction: 10°N
Pressure: 29.79"   Gusts: NA
Location:  63.6°N, 135.88°W
Report Text: CYMA 260600Z 01005KT 350V050 10SM -SN SCT030 OVC080 M03/M05 A2979 RMK SC3AC5 CLIMAT -2.0/-3.2/0.2CM/0.2MWE SLP122
Loading
Personal Weather Stations






























Interactive Weather Map
Tropical Storm Tracking
New forecast layout! Learn more

10-Day Weather Forecast

Advertisements
Track Severe Weather on mobile